sensor_id;sensor_type;location;lat;lon;timestamp;P1;durP1;ratioP1;P2;durP2;ratioP2
21046;SDS011;10682;50.874;3.656;2023-02-18T00:01:35;13.27;;;8.57;;
21046;SDS011;10682;50.874;3.656;2023-02-18T00:04:02;17.93;;;8.87;;
21046;SDS011;10682;50.874;3.656;2023-02-18T00:06:31;17.00;;;9.50;;
21046;SDS011;10682;50.874;3.656;2023-02-18T00:09:00;17.07;;;8.70;;
21046;SDS011;10682;50.874;3.656;2023-02-18T00:11:30;16.47;;;8.33;;
21046;SDS011;10682;50.874;3.656;2023-02-18T00:16:37;13.73;;;7.30;;
21046;SDS011;10682;50.874;3.656;2023-02-18T00:19:06;15.50;;;7.13;;
21046;SDS011;10682;50.874;3.656;2023-02-18T00:21:37;25.23;;;7.97;;
21046;SDS011;10682;50.874;3.656;2023-02-18T00:24:04;13.63;;;7.53;;
21046;SDS011;10682;50.874;3.656;2023-02-18T00:26:33;14.60;;;8.07;;
21046;SDS011;10682;50.874;3.656;2023-02-18T00:29:01;17.37;;;9.07;;
21046;SDS011;10682;50.874;3.656;2023-02-18T00:31:30;14.03;;;7.20;;
21046;SDS011;10682;50.874;3.656;2023-02-18T00:34:01;12.93;;;7.60;;
21046;SDS011;10682;50.874;3.656;2023-02-18T00:36:29;15.67;;;8.07;;
21046;SDS011;10682;50.874;3.656;2023-02-18T00:38:58;15.70;;;7.17;;
21046;SDS011;10682;50.874;3.656;2023-02-18T00:41:29;16.80;;;7.83;;
21046;SDS011;10682;50.874;3.656;2023-02-18T00:43:57;12.97;;;7.07;;
21046;SDS011;10682;50.874;3.656;2023-02-18T00:46:24;13.53;;;6.73;;
21046;SDS011;10682;50.874;3.656;2023-02-18T00:48:53;11.93;;;6.13;;
21046;SDS011;10682;50.874;3.656;2023-02-18T00:51:21;19.07;;;6.87;;
21046;SDS011;10682;50.874;3.656;2023-02-18T00:53:50;11.83;;;5.93;;
21046;SDS011;10682;50.874;3.656;2023-02-18T00:56:17;12.00;;;6.47;;
21046;SDS011;10682;50.874;3.656;2023-02-18T00:58:45;11.03;;;5.60;;
21046;SDS011;10682;50.874;3.656;2023-02-18T01:01:12;10.70;;;6.07;;
21046;SDS011;10682;50.874;3.656;2023-02-18T01:03:40;14.87;;;7.90;;
21046;SDS011;10682;50.874;3.656;2023-02-18T01:06:08;11.87;;;6.80;;
21046;SDS011;10682;50.874;3.656;2023-02-18T01:08:37;8.70;;;5.60;;
21046;SDS011;10682;50.874;3.656;2023-02-18T01:11:06;10.67;;;6.40;;
21046;SDS011;10682;50.874;3.656;2023-02-18T01:13:35;8.13;;;5.47;;
21046;SDS011;10682;50.874;3.656;2023-02-18T01:16:04;8.80;;;5.03;;
21046;SDS011;10682;50.874;3.656;2023-02-18T01:18:32;9.13;;;5.67;;
21046;SDS011;10682;50.874;3.656;2023-02-18T01:20:59;8.33;;;5.30;;
21046;SDS011;10682;50.874;3.656;2023-02-18T01:23:27;6.43;;;4.73;;
21046;SDS011;10682;50.874;3.656;2023-02-18T01:25:54;8.50;;;4.57;;
21046;SDS011;10682;50.874;3.656;2023-02-18T01:28:23;8.30;;;4.17;;
21046;SDS011;10682;50.874;3.656;2023-02-18T01:30:51;6.03;;;4.10;;
21046;SDS011;10682;50.874;3.656;2023-02-18T01:33:19;5.77;;;3.77;;
21046;SDS011;10682;50.874;3.656;2023-02-18T01:35:47;9.67;;;4.90;;
21046;SDS011;10682;50.874;3.656;2023-02-18T01:38:14;7.53;;;4.43;;
21046;SDS011;10682;50.874;3.656;2023-02-18T01:40:48;7.80;;;4.80;;
21046;SDS011;10682;50.874;3.656;2023-02-18T01:43:18;6.87;;;4.30;;
21046;SDS011;10682;50.874;3.656;2023-02-18T01:48:35;7.07;;;4.73;;
21046;SDS011;10682;50.874;3.656;2023-02-18T01:51:39;8.30;;;4.73;;
21046;SDS011;10682;50.874;3.656;2023-02-18T01:54:24;6.50;;;3.60;;
21046;SDS011;10682;50.874;3.656;2023-02-18T01:57:01;7.17;;;3.87;;
21046;SDS011;10682;50.874;3.656;2023-02-18T01:59:40;5.80;;;3.40;;
21046;SDS011;10682;50.874;3.656;2023-02-18T02:02:23;4.13;;;3.13;;
21046;SDS011;10682;50.874;3.656;2023-02-18T02:05:01;4.77;;;3.70;;
21046;SDS011;10682;50.874;3.656;2023-02-18T02:07:29;9.43;;;4.40;;
21046;SDS011;10682;50.874;3.656;2023-02-18T02:09:56;8.07;;;4.93;;
21046;SDS011;10682;50.874;3.656;2023-02-18T02:18:49;8.43;;;5.30;;
21046;SDS011;10682;50.874;3.656;2023-02-18T02:30:21;7.47;;;4.70;;
21046;SDS011;10682;50.874;3.656;2023-02-18T02:33:19;6.30;;;5.03;;
21046;SDS011;10682;50.874;3.656;2023-02-18T02:38:52;8.83;;;5.47;;
21046;SDS011;10682;50.874;3.656;2023-02-18T02:41:27;9.13;;;5.30;;
21046;SDS011;10682;50.874;3.656;2023-02-18T02:44:19;10.63;;;6.17;;
21046;SDS011;10682;50.874;3.656;2023-02-18T02:46:55;9.50;;;5.70;;
21046;SDS011;10682;50.874;3.656;2023-02-18T02:49:59;9.23;;;5.43;;
21046;SDS011;10682;50.874;3.656;2023-02-18T02:52:33;11.27;;;5.97;;
21046;SDS011;10682;50.874;3.656;2023-02-18T02:55:10;9.50;;;6.00;;
21046;SDS011;10682;50.874;3.656;2023-02-18T02:57:42;8.80;;;6.30;;
21046;SDS011;10682;50.874;3.656;2023-02-18T03:00:13;8.20;;;5.30;;
21046;SDS011;10682;50.874;3.656;2023-02-18T03:06:09;7.60;;;5.33;;
21046;SDS011;10682;50.874;3.656;2023-02-18T03:09:14;7.77;;;4.43;;
21046;SDS011;10682;50.874;3.656;2023-02-18T03:14:47;6.47;;;4.50;;
21046;SDS011;10682;50.874;3.656;2023-02-18T03:17:34;9.97;;;5.80;;
21046;SDS011;10682;50.874;3.656;2023-02-18T03:23:03;8.83;;;5.33;;
21046;SDS011;10682;50.874;3.656;2023-02-18T03:25:37;8.83;;;5.40;;
21046;SDS011;10682;50.874;3.656;2023-02-18T03:28:13;7.27;;;5.17;;
21046;SDS011;10682;50.874;3.656;2023-02-18T03:33:20;8.83;;;4.37;;
21046;SDS011;10682;50.874;3.656;2023-02-18T03:35:56;6.07;;;4.70;;
21046;SDS011;10682;50.874;3.656;2023-02-18T03:41:11;8.50;;;4.83;;
21046;SDS011;10682;50.874;3.656;2023-02-18T03:43:40;5.27;;;4.27;;
21046;SDS011;10682;50.874;3.656;2023-02-18T03:46:17;5.77;;;4.30;;
21046;SDS011;10682;50.874;3.656;2023-02-18T03:48:45;6.40;;;5.00;;
21046;SDS011;10682;50.874;3.656;2023-02-18T03:51:12;7.00;;;4.70;;
21046;SDS011;10682;50.874;3.656;2023-02-18T03:53:39;6.20;;;4.23;;
21046;SDS011;10682;50.874;3.656;2023-02-18T03:56:06;9.23;;;5.87;;
21046;SDS011;10682;50.874;3.656;2023-02-18T04:01:03;5.47;;;3.70;;
21046;SDS011;10682;50.874;3.656;2023-02-18T04:03:31;4.00;;;3.50;;
21046;SDS011;10682;50.874;3.656;2023-02-18T04:05:58;6.10;;;3.10;;
21046;SDS011;10682;50.874;3.656;2023-02-18T04:08:26;3.53;;;2.70;;
21046;SDS011;10682;50.874;3.656;2023-02-18T04:10:53;6.13;;;4.13;;
21046;SDS011;10682;50.874;3.656;2023-02-18T04:13:28;6.60;;;3.17;;
21046;SDS011;10682;50.874;3.656;2023-02-18T04:15:55;4.27;;;2.73;;
21046;SDS011;10682;50.874;3.656;2023-02-18T04:18:22;5.97;;;3.27;;
21046;SDS011;10682;50.874;3.656;2023-02-18T04:20:49;6.00;;;2.77;;
21046;SDS011;10682;50.874;3.656;2023-02-18T04:23:17;6.70;;;3.53;;
21046;SDS011;10682;50.874;3.656;2023-02-18T04:25:44;9.03;;;5.13;;
21046;SDS011;10682;50.874;3.656;2023-02-18T04:28:12;6.30;;;4.70;;
21046;SDS011;10682;50.874;3.656;2023-02-18T04:30:42;6.10;;;4.40;;
21046;SDS011;10682;50.874;3.656;2023-02-18T04:33:10;5.53;;;3.67;;
21046;SDS011;10682;50.874;3.656;2023-02-18T04:35:38;5.60;;;3.60;;
21046;SDS011;10682;50.874;3.656;2023-02-18T04:38:08;7.23;;;4.00;;
21046;SDS011;10682;50.874;3.656;2023-02-18T04:40:36;6.63;;;3.30;;
21046;SDS011;10682;50.874;3.656;2023-02-18T04:43:04;7.30;;;3.80;;
21046;SDS011;10682;50.874;3.656;2023-02-18T04:45:31;8.53;;;3.23;;
21046;SDS011;10682;50.874;3.656;2023-02-18T04:47:58;7.50;;;2.83;;
21046;SDS011;10682;50.874;3.656;2023-02-18T04:50:25;7.83;;;3.10;;
21046;SDS011;10682;50.874;3.656;2023-02-18T04:52:52;7.53;;;2.57;;
21046;SDS011;10682;50.874;3.656;2023-02-18T04:55:19;7.53;;;2.90;;
21046;SDS011;10682;50.874;3.656;2023-02-18T04:57:46;7.13;;;2.50;;
21046;SDS011;10682;50.874;3.656;2023-02-18T05:00:14;11.40;;;2.70;;
21046;SDS011;10682;50.874;3.656;2023-02-18T05:02:44;7.43;;;2.50;;
21046;SDS011;10682;50.874;3.656;2023-02-18T05:05:11;7.37;;;2.43;;
21046;SDS011;10682;50.874;3.656;2023-02-18T05:07:39;14.37;;;2.63;;
21046;SDS011;10682;50.874;3.656;2023-02-18T05:10:09;9.90;;;2.60;;
21046;SDS011;10682;50.874;3.656;2023-02-18T05:15:15;13.90;;;2.50;;
21046;SDS011;10682;50.874;3.656;2023-02-18T05:17:44;15.50;;;2.30;;
21046;SDS011;10682;50.874;3.656;2023-02-18T05:20:11;15.37;;;2.40;;
21046;SDS011;10682;50.874;3.656;2023-02-18T05:22:38;12.67;;;2.20;;
21046;SDS011;10682;50.874;3.656;2023-02-18T05:25:06;10.33;;;2.27;;
21046;SDS011;10682;50.874;3.656;2023-02-18T05:27:33;12.13;;;2.13;;
21046;SDS011;10682;50.874;3.656;2023-02-18T05:30:00;13.37;;;2.40;;
21046;SDS011;10682;50.874;3.656;2023-02-18T05:32:28;12.97;;;2.20;;
21046;SDS011;10682;50.874;3.656;2023-02-18T05:34:55;13.53;;;2.20;;
21046;SDS011;10682;50.874;3.656;2023-02-18T05:37:22;15.10;;;1.97;;
21046;SDS011;10682;50.874;3.656;2023-02-18T05:39:49;13.07;;;2.40;;
21046;SDS011;10682;50.874;3.656;2023-02-18T05:42:16;16.07;;;2.37;;
21046;SDS011;10682;50.874;3.656;2023-02-18T05:44:43;14.63;;;2.47;;
21046;SDS011;10682;50.874;3.656;2023-02-18T05:47:11;14.77;;;2.40;;
21046;SDS011;10682;50.874;3.656;2023-02-18T05:49:39;24.03;;;2.53;;
21046;SDS011;10682;50.874;3.656;2023-02-18T05:52:07;22.00;;;2.83;;
21046;SDS011;10682;50.874;3.656;2023-02-18T05:54:35;18.37;;;3.03;;
21046;SDS011;10682;50.874;3.656;2023-02-18T05:57:04;12.40;;;2.00;;
21046;SDS011;10682;50.874;3.656;2023-02-18T05:59:31;18.30;;;3.27;;
21046;SDS011;10682;50.874;3.656;2023-02-18T06:02:17;14.40;;;3.03;;
21046;SDS011;10682;50.874;3.656;2023-02-18T06:04:50;15.13;;;2.60;;
21046;SDS011;10682;50.874;3.656;2023-02-18T06:07:17;16.17;;;2.20;;
21046;SDS011;10682;50.874;3.656;2023-02-18T06:09:45;17.37;;;2.90;;
21046;SDS011;10682;50.874;3.656;2023-02-18T06:12:13;13.67;;;2.23;;
21046;SDS011;10682;50.874;3.656;2023-02-18T06:14:40;11.07;;;2.00;;
21046;SDS011;10682;50.874;3.656;2023-02-18T06:17:08;16.20;;;2.20;;
21046;SDS011;10682;50.874;3.656;2023-02-18T06:19:37;18.67;;;2.57;;
21046;SDS011;10682;50.874;3.656;2023-02-18T06:22:04;12.37;;;2.47;;
21046;SDS011;10682;50.874;3.656;2023-02-18T06:24:32;15.07;;;2.60;;
21046;SDS011;10682;50.874;3.656;2023-02-18T06:27:00;19.93;;;2.43;;
21046;SDS011;10682;50.874;3.656;2023-02-18T06:29:27;18.37;;;2.67;;
21046;SDS011;10682;50.874;3.656;2023-02-18T06:31:57;13.63;;;2.70;;
21046;SDS011;10682;50.874;3.656;2023-02-18T06:34:25;13.17;;;2.50;;
21046;SDS011;10682;50.874;3.656;2023-02-18T06:36:53;15.80;;;2.30;;
21046;SDS011;10682;50.874;3.656;2023-02-18T06:39:20;15.57;;;2.13;;
21046;SDS011;10682;50.874;3.656;2023-02-18T06:41:47;19.83;;;2.80;;
21046;SDS011;10682;50.874;3.656;2023-02-18T06:44:14;16.10;;;2.83;;
21046;SDS011;10682;50.874;3.656;2023-02-18T06:46:42;15.87;;;2.60;;
21046;SDS011;10682;50.874;3.656;2023-02-18T06:49:10;15.43;;;2.90;;
21046;SDS011;10682;50.874;3.656;2023-02-18T06:51:37;24.23;;;3.00;;
21046;SDS011;10682;50.874;3.656;2023-02-18T06:54:04;24.63;;;2.87;;
21046;SDS011;10682;50.874;3.656;2023-02-18T06:56:32;15.10;;;2.33;;
21046;SDS011;10682;50.874;3.656;2023-02-18T06:58:59;16.37;;;2.87;;
21046;SDS011;10682;50.874;3.656;2023-02-18T07:01:26;14.67;;;2.20;;
21046;SDS011;10682;50.874;3.656;2023-02-18T07:03:53;18.27;;;3.43;;
21046;SDS011;10682;50.874;3.656;2023-02-18T07:06:20;18.03;;;2.67;;
21046;SDS011;10682;50.874;3.656;2023-02-18T07:08:47;12.17;;;2.23;;
21046;SDS011;10682;50.874;3.656;2023-02-18T07:11:14;12.33;;;2.03;;
21046;SDS011;10682;50.874;3.656;2023-02-18T07:13:41;17.10;;;2.13;;
21046;SDS011;10682;50.874;3.656;2023-02-18T07:16:08;18.43;;;2.67;;
21046;SDS011;10682;50.874;3.656;2023-02-18T07:18:36;19.37;;;2.83;;
21046;SDS011;10682;50.874;3.656;2023-02-18T07:21:03;17.27;;;2.50;;
21046;SDS011;10682;50.874;3.656;2023-02-18T07:23:30;19.93;;;2.60;;
21046;SDS011;10682;50.874;3.656;2023-02-18T07:26:08;16.20;;;2.20;;
21046;SDS011;10682;50.874;3.656;2023-02-18T07:28:38;22.33;;;2.80;;
21046;SDS011;10682;50.874;3.656;2023-02-18T07:31:05;15.93;;;2.30;;
21046;SDS011;10682;50.874;3.656;2023-02-18T07:33:34;18.23;;;2.50;;
21046;SDS011;10682;50.874;3.656;2023-02-18T07:36:01;15.87;;;2.60;;
21046;SDS011;10682;50.874;3.656;2023-02-18T07:38:29;17.63;;;3.10;;
21046;SDS011;10682;50.874;3.656;2023-02-18T07:40:57;15.57;;;2.53;;
21046;SDS011;10682;50.874;3.656;2023-02-18T07:43:24;17.27;;;2.57;;
21046;SDS011;10682;50.874;3.656;2023-02-18T07:45:51;18.67;;;2.63;;
21046;SDS011;10682;50.874;3.656;2023-02-18T07:48:18;17.67;;;2.47;;
21046;SDS011;10682;50.874;3.656;2023-02-18T07:50:45;14.23;;;2.60;;
21046;SDS011;10682;50.874;3.656;2023-02-18T07:53:13;15.90;;;2.47;;
21046;SDS011;10682;50.874;3.656;2023-02-18T07:55:44;12.43;;;2.00;;
21046;SDS011;10682;50.874;3.656;2023-02-18T08:00:46;16.93;;;2.37;;
21046;SDS011;10682;50.874;3.656;2023-02-18T08:03:17;15.90;;;2.20;;
21046;SDS011;10682;50.874;3.656;2023-02-18T08:05:49;18.73;;;2.07;;
21046;SDS011;10682;50.874;3.656;2023-02-18T08:08:18;12.63;;;2.10;;
21046;SDS011;10682;50.874;3.656;2023-02-18T08:10:48;14.97;;;1.77;;
21046;SDS011;10682;50.874;3.656;2023-02-18T08:13:17;14.13;;;2.07;;
21046;SDS011;10682;50.874;3.656;2023-02-18T08:15:44;17.00;;;2.00;;
21046;SDS011;10682;50.874;3.656;2023-02-18T08:18:13;14.00;;;1.80;;
21046;SDS011;10682;50.874;3.656;2023-02-18T08:20:44;12.27;;;1.93;;
21046;SDS011;10682;50.874;3.656;2023-02-18T08:23:12;11.40;;;1.90;;
21046;SDS011;10682;50.874;3.656;2023-02-18T08:25:45;9.60;;;1.60;;
21046;SDS011;10682;50.874;3.656;2023-02-18T08:28:16;8.93;;;1.50;;
21046;SDS011;10682;50.874;3.656;2023-02-18T08:30:45;13.77;;;1.77;;
21046;SDS011;10682;50.874;3.656;2023-02-18T08:33:17;11.97;;;1.93;;
21046;SDS011;10682;50.874;3.656;2023-02-18T08:35:46;16.70;;;2.03;;
21046;SDS011;10682;50.874;3.656;2023-02-18T08:38:15;9.40;;;2.00;;
21046;SDS011;10682;50.874;3.656;2023-02-18T08:40:42;10.83;;;1.83;;
21046;SDS011;10682;50.874;3.656;2023-02-18T08:43:12;12.10;;;2.07;;
21046;SDS011;10682;50.874;3.656;2023-02-18T08:45:41;17.70;;;2.60;;
21046;SDS011;10682;50.874;3.656;2023-02-18T08:48:10;12.33;;;1.83;;
21046;SDS011;10682;50.874;3.656;2023-02-18T08:50:46;14.00;;;2.37;;
21046;SDS011;10682;50.874;3.656;2023-02-18T08:53:13;14.13;;;2.07;;
21046;SDS011;10682;50.874;3.656;2023-02-18T08:55:41;12.67;;;1.80;;
21046;SDS011;10682;50.874;3.656;2023-02-18T08:58:09;12.47;;;2.30;;
21046;SDS011;10682;50.874;3.656;2023-02-18T09:00:37;13.20;;;2.00;;
21046;SDS011;10682;50.874;3.656;2023-02-18T09:03:06;12.67;;;2.23;;
21046;SDS011;10682;50.874;3.656;2023-02-18T09:05:37;11.27;;;1.93;;
21046;SDS011;10682;50.874;3.656;2023-02-18T09:08:05;16.50;;;1.90;;
21046;SDS011;10682;50.874;3.656;2023-02-18T09:10:33;12.00;;;2.03;;
21046;SDS011;10682;50.874;3.656;2023-02-18T09:13:00;12.10;;;2.10;;
21046;SDS011;10682;50.874;3.656;2023-02-18T09:15:27;11.93;;;1.90;;
21046;SDS011;10682;50.874;3.656;2023-02-18T09:17:54;13.30;;;2.47;;
21046;SDS011;10682;50.874;3.656;2023-02-18T09:20:21;17.27;;;2.03;;
21046;SDS011;10682;50.874;3.656;2023-02-18T09:22:48;14.20;;;2.13;;
21046;SDS011;10682;50.874;3.656;2023-02-18T09:25:15;13.27;;;1.90;;
21046;SDS011;10682;50.874;3.656;2023-02-18T09:27:42;16.00;;;2.03;;
21046;SDS011;10682;50.874;3.656;2023-02-18T09:30:09;13.90;;;2.10;;
21046;SDS011;10682;50.874;3.656;2023-02-18T09:32:37;12.40;;;2.30;;
21046;SDS011;10682;50.874;3.656;2023-02-18T09:35:04;13.97;;;2.13;;
21046;SDS011;10682;50.874;3.656;2023-02-18T09:37:31;15.33;;;2.03;;
21046;SDS011;10682;50.874;3.656;2023-02-18T09:39:58;16.07;;;2.67;;
21046;SDS011;10682;50.874;3.656;2023-02-18T09:42:30;12.60;;;2.23;;
21046;SDS011;10682;50.874;3.656;2023-02-18T09:45:00;20.43;;;2.40;;
21046;SDS011;10682;50.874;3.656;2023-02-18T09:47:34;17.10;;;2.37;;
21046;SDS011;10682;50.874;3.656;2023-02-18T09:50:13;17.60;;;2.63;;
21046;SDS011;10682;50.874;3.656;2023-02-18T09:52:48;13.53;;;2.17;;
21046;SDS011;10682;50.874;3.656;2023-02-18T09:55:49;16.03;;;2.30;;
21046;SDS011;10682;50.874;3.656;2023-02-18T10:01:03;12.90;;;2.10;;
21046;SDS011;10682;50.874;3.656;2023-02-18T10:03:36;7.40;;;1.90;;
21046;SDS011;10682;50.874;3.656;2023-02-18T10:06:23;14.43;;;2.50;;
21046;SDS011;10682;50.874;3.656;2023-02-18T10:08:55;16.13;;;2.50;;
21046;SDS011;10682;50.874;3.656;2023-02-18T10:11:37;15.10;;;2.40;;
21046;SDS011;10682;50.874;3.656;2023-02-18T10:14:11;12.63;;;2.10;;
21046;SDS011;10682;50.874;3.656;2023-02-18T10:16:40;15.97;;;2.33;;
21046;SDS011;10682;50.874;3.656;2023-02-18T10:19:20;10.70;;;1.90;;
21046;SDS011;10682;50.874;3.656;2023-02-18T10:22:01;18.13;;;2.10;;
21046;SDS011;10682;50.874;3.656;2023-02-18T10:24:36;13.70;;;2.60;;
21046;SDS011;10682;50.874;3.656;2023-02-18T10:27:09;11.00;;;2.70;;
21046;SDS011;10682;50.874;3.656;2023-02-18T10:29:44;21.13;;;2.37;;
21046;SDS011;10682;50.874;3.656;2023-02-18T10:32:25;13.77;;;2.20;;
21046;SDS011;10682;50.874;3.656;2023-02-18T10:35:05;18.03;;;2.17;;
21046;SDS011;10682;50.874;3.656;2023-02-18T10:46:34;14.20;;;2.67;;
21046;SDS011;10682;50.874;3.656;2023-02-18T10:52:02;15.10;;;2.50;;
21046;SDS011;10682;50.874;3.656;2023-02-18T10:57:35;13.80;;;2.80;;
21046;SDS011;10682;50.874;3.656;2023-02-18T11:00:18;12.93;;;2.00;;
21046;SDS011;10682;50.874;3.656;2023-02-18T11:05:38;14.33;;;2.87;;
21046;SDS011;10682;50.874;3.656;2023-02-18T11:08:10;11.70;;;2.30;;
21046;SDS011;10682;50.874;3.656;2023-02-18T11:10:46;14.90;;;2.73;;
21046;SDS011;10682;50.874;3.656;2023-02-18T11:13:16;12.97;;;2.43;;
21046;SDS011;10682;50.874;3.656;2023-02-18T11:15:56;10.43;;;2.27;;
21046;SDS011;10682;50.874;3.656;2023-02-18T11:18:43;14.20;;;2.70;;
21046;SDS011;10682;50.874;3.656;2023-02-18T11:21:23;14.57;;;2.40;;
21046;SDS011;10682;50.874;3.656;2023-02-18T11:24:07;12.67;;;2.10;;
21046;SDS011;10682;50.874;3.656;2023-02-18T11:26:40;11.67;;;1.90;;
21046;SDS011;10682;50.874;3.656;2023-02-18T11:29:29;14.00;;;2.47;;
21046;SDS011;10682;50.874;3.656;2023-02-18T11:31:58;9.97;;;2.23;;
21046;SDS011;10682;50.874;3.656;2023-02-18T11:34:28;16.53;;;2.37;;
21046;SDS011;10682;50.874;3.656;2023-02-18T11:37:17;13.07;;;2.50;;
21046;SDS011;10682;50.874;3.656;2023-02-18T11:39:47;13.63;;;1.90;;
21046;SDS011;10682;50.874;3.656;2023-02-18T11:42:19;12.00;;;2.30;;
21046;SDS011;10682;50.874;3.656;2023-02-18T11:44:54;15.73;;;2.50;;
21046;SDS011;10682;50.874;3.656;2023-02-18T11:47:27;11.93;;;2.03;;
21046;SDS011;10682;50.874;3.656;2023-02-18T11:50:03;14.63;;;3.03;;
21046;SDS011;10682;50.874;3.656;2023-02-18T11:52:39;11.87;;;2.07;;
21046;SDS011;10682;50.874;3.656;2023-02-18T11:55:45;14.53;;;2.73;;
21046;SDS011;10682;50.874;3.656;2023-02-18T11:58:19;15.63;;;2.20;;
21046;SDS011;10682;50.874;3.656;2023-02-18T12:00:49;12.00;;;2.50;;
21046;SDS011;10682;50.874;3.656;2023-02-18T12:06:08;16.07;;;2.70;;
21046;SDS011;10682;50.874;3.656;2023-02-18T12:08:51;10.63;;;2.37;;
21046;SDS011;10682;50.874;3.656;2023-02-18T12:11:51;15.97;;;2.93;;
21046;SDS011;10682;50.874;3.656;2023-02-18T12:14:25;12.23;;;2.30;;
21046;SDS011;10682;50.874;3.656;2023-02-18T12:17:10;13.10;;;2.40;;
21046;SDS011;10682;50.874;3.656;2023-02-18T12:20:22;11.97;;;2.40;;
21046;SDS011;10682;50.874;3.656;2023-02-18T12:23:11;12.37;;;2.50;;
21046;SDS011;10682;50.874;3.656;2023-02-18T12:33:14;14.37;;;2.87;;
21046;SDS011;10682;50.874;3.656;2023-02-18T12:35:56;15.00;;;2.43;;
21046;SDS011;10682;50.874;3.656;2023-02-18T12:44:40;9.50;;;2.70;;
21046;SDS011;10682;50.874;3.656;2023-02-18T12:53:44;14.07;;;3.17;;
21046;SDS011;10682;50.874;3.656;2023-02-18T13:03:02;17.83;;;2.97;;
21046;SDS011;10682;50.874;3.656;2023-02-18T13:08:50;12.43;;;3.43;;
21046;SDS011;10682;50.874;3.656;2023-02-18T13:14:10;19.00;;;3.63;;
21046;SDS011;10682;50.874;3.656;2023-02-18T13:16:47;15.63;;;3.33;;
21046;SDS011;10682;50.874;3.656;2023-02-18T13:19:22;14.33;;;3.33;;
21046;SDS011;10682;50.874;3.656;2023-02-18T13:22:14;18.60;;;4.03;;
21046;SDS011;10682;50.874;3.656;2023-02-18T13:24:44;14.63;;;4.37;;
21046;SDS011;10682;50.874;3.656;2023-02-18T13:27:32;14.50;;;4.30;;
21046;SDS011;10682;50.874;3.656;2023-02-18T13:35:56;13.90;;;4.17;;
21046;SDS011;10682;50.874;3.656;2023-02-18T13:41:39;24.00;;;5.13;;
21046;SDS011;10682;50.874;3.656;2023-02-18T13:44:08;13.63;;;4.33;;
21046;SDS011;10682;50.874;3.656;2023-02-18T13:46:56;13.70;;;4.40;;
21046;SDS011;10682;50.874;3.656;2023-02-18T13:49:33;14.23;;;4.63;;
21046;SDS011;10682;50.874;3.656;2023-02-18T13:52:03;16.27;;;5.23;;
21046;SDS011;10682;50.874;3.656;2023-02-18T13:54:32;19.80;;;5.57;;
21046;SDS011;10682;50.874;3.656;2023-02-18T13:57:15;27.83;;;6.07;;
21046;SDS011;10682;50.874;3.656;2023-02-18T13:59:50;12.87;;;5.93;;
21046;SDS011;10682;50.874;3.656;2023-02-18T14:02:29;22.23;;;6.60;;
21046;SDS011;10682;50.874;3.656;2023-02-18T14:20:44;20.93;;;6.43;;
21046;SDS011;10682;50.874;3.656;2023-02-18T14:25:53;20.80;;;5.57;;
21046;SDS011;10682;50.874;3.656;2023-02-18T14:31:03;24.00;;;6.23;;
21046;SDS011;10682;50.874;3.656;2023-02-18T14:34:00;17.83;;;5.27;;
21046;SDS011;10682;50.874;3.656;2023-02-18T14:36:52;17.07;;;5.37;;
21046;SDS011;10682;50.874;3.656;2023-02-18T14:52:02;12.43;;;4.33;;
21046;SDS011;10682;50.874;3.656;2023-02-18T14:54:32;15.13;;;4.77;;
21046;SDS011;10682;50.874;3.656;2023-02-18T14:57:00;22.23;;;5.33;;
21046;SDS011;10682;50.874;3.656;2023-02-18T14:59:34;18.83;;;5.63;;
21046;SDS011;10682;50.874;3.656;2023-02-18T15:02:25;15.13;;;5.43;;
21046;SDS011;10682;50.874;3.656;2023-02-18T15:05:13;15.40;;;5.57;;
21046;SDS011;10682;50.874;3.656;2023-02-18T15:10:38;18.07;;;6.53;;
21046;SDS011;10682;50.874;3.656;2023-02-18T15:16:04;15.10;;;4.30;;
21046;SDS011;10682;50.874;3.656;2023-02-18T15:24:55;15.30;;;3.47;;
21046;SDS011;10682;50.874;3.656;2023-02-18T15:26:59;12.73;;;3.57;;
21046;SDS011;10682;50.874;3.656;2023-02-18T15:29:34;12.73;;;3.97;;
21046;SDS011;10682;50.874;3.656;2023-02-18T15:32:11;14.50;;;4.07;;
21046;SDS011;10682;50.874;3.656;2023-02-18T15:34:52;13.43;;;4.30;;
21046;SDS011;10682;50.874;3.656;2023-02-18T15:37:29;12.93;;;3.83;;
21046;SDS011;10682;50.874;3.656;2023-02-18T15:39:56;10.17;;;3.57;;
21046;SDS011;10682;50.874;3.656;2023-02-18T15:45:09;13.50;;;3.90;;
21046;SDS011;10682;50.874;3.656;2023-02-18T15:47:45;7.37;;;2.60;;
21046;SDS011;10682;50.874;3.656;2023-02-18T15:50:20;8.20;;;3.50;;
21046;SDS011;10682;50.874;3.656;2023-02-18T15:52:58;15.17;;;3.93;;
21046;SDS011;10682;50.874;3.656;2023-02-18T15:55:35;8.60;;;4.27;;
21046;SDS011;10682;50.874;3.656;2023-02-18T15:58:07;11.33;;;4.77;;
21046;SDS011;10682;50.874;3.656;2023-02-18T16:00:47;11.43;;;3.90;;
21046;SDS011;10682;50.874;3.656;2023-02-18T16:03:19;6.67;;;3.60;;
21046;SDS011;10682;50.874;3.656;2023-02-18T16:05:50;10.97;;;4.23;;
21046;SDS011;10682;50.874;3.656;2023-02-18T16:08:36;9.93;;;4.10;;
21046;SDS011;10682;50.874;3.656;2023-02-18T16:11:07;15.03;;;6.20;;
21046;SDS011;10682;50.874;3.656;2023-02-18T16:13:43;8.93;;;5.07;;
21046;SDS011;10682;50.874;3.656;2023-02-18T16:16:32;13.23;;;5.23;;
21046;SDS011;10682;50.874;3.656;2023-02-18T16:19:02;12.07;;;5.13;;
21046;SDS011;10682;50.874;3.656;2023-02-18T16:24:24;11.77;;;4.90;;
21046;SDS011;10682;50.874;3.656;2023-02-18T16:26:57;14.17;;;5.53;;
21046;SDS011;10682;50.874;3.656;2023-02-18T16:29:32;12.60;;;5.63;;
21046;SDS011;10682;50.874;3.656;2023-02-18T16:32:06;18.03;;;5.87;;
21046;SDS011;10682;50.874;3.656;2023-02-18T16:34:33;11.27;;;5.23;;
21046;SDS011;10682;50.874;3.656;2023-02-18T16:37:01;12.77;;;5.43;;
21046;SDS011;10682;50.874;3.656;2023-02-18T16:39:48;16.30;;;5.10;;
21046;SDS011;10682;50.874;3.656;2023-02-18T16:42:19;9.83;;;4.30;;
21046;SDS011;10682;50.874;3.656;2023-02-18T16:44:47;14.03;;;4.70;;
21046;SDS011;10682;50.874;3.656;2023-02-18T16:47:15;11.60;;;5.20;;
21046;SDS011;10682;50.874;3.656;2023-02-18T16:49:44;13.50;;;5.70;;
21046;SDS011;10682;50.874;3.656;2023-02-18T16:52:14;23.17;;;9.07;;
21046;SDS011;10682;50.874;3.656;2023-02-18T16:54:43;18.43;;;7.63;;
21046;SDS011;10682;50.874;3.656;2023-02-18T16:57:12;25.63;;;11.30;;
21046;SDS011;10682;50.874;3.656;2023-02-18T16:59:39;38.63;;;14.93;;
21046;SDS011;10682;50.874;3.656;2023-02-18T17:02:11;40.23;;;15.27;;
21046;SDS011;10682;50.874;3.656;2023-02-18T17:04:46;17.90;;;8.53;;
21046;SDS011;10682;50.874;3.656;2023-02-18T17:07:13;14.10;;;6.90;;
21046;SDS011;10682;50.874;3.656;2023-02-18T17:09:40;16.87;;;6.43;;
21046;SDS011;10682;50.874;3.656;2023-02-18T17:12:07;12.13;;;6.33;;
21046;SDS011;10682;50.874;3.656;2023-02-18T17:14:35;16.23;;;6.33;;
21046;SDS011;10682;50.874;3.656;2023-02-18T17:17:04;17.70;;;6.83;;
21046;SDS011;10682;50.874;3.656;2023-02-18T17:19:36;14.63;;;7.00;;
21046;SDS011;10682;50.874;3.656;2023-02-18T17:22:03;18.80;;;6.80;;
21046;SDS011;10682;50.874;3.656;2023-02-18T17:24:30;16.43;;;6.13;;
21046;SDS011;10682;50.874;3.656;2023-02-18T17:26:57;15.50;;;6.87;;
21046;SDS011;10682;50.874;3.656;2023-02-18T17:29:25;12.67;;;6.33;;
21046;SDS011;10682;50.874;3.656;2023-02-18T17:31:52;10.47;;;6.43;;
21046;SDS011;10682;50.874;3.656;2023-02-18T17:34:26;11.37;;;6.13;;
21046;SDS011;10682;50.874;3.656;2023-02-18T17:36:56;13.33;;;6.10;;
21046;SDS011;10682;50.874;3.656;2023-02-18T17:39:24;11.33;;;5.90;;
21046;SDS011;10682;50.874;3.656;2023-02-18T17:41:51;8.30;;;5.00;;
21046;SDS011;10682;50.874;3.656;2023-02-18T17:44:21;10.70;;;4.73;;
21046;SDS011;10682;50.874;3.656;2023-02-18T17:46:49;14.20;;;4.70;;
21046;SDS011;10682;50.874;3.656;2023-02-18T17:49:17;12.57;;;4.97;;